バマコ の空港の天気 - METARとTAF

バマコ・セヌー国際空港 ( GABS / BKO ) - マリ バマコ
飛行場実況気象(Metar)
観測時間10/15 17:00 GMT (10/15 17:00 UTC)
風向・風速不定 1m/s
視程10km以上
天気現象
少しの雲 雲底高度 610m
気温28℃
湿度66%
気圧1012hPa
METARGABS 151700Z VRB01KT 9999 FEW020 28/21 Q1012 NOSIG
過去の天気等 Google飛行場航空写真 Wunderground天気予報

過去48時間のMETAR

飛行場予報(TAF)
発表時間: 10/15 11:20 GMT (10/15 11:20 UTC)
予報対象時間: 15日12時 GMT ~ 16日18時 GMT
風向・風速西北西 4m/s
視程10km以上
全天の4割程度の雲 雲底高度 790m
15日15時 GMT ~ 15日21時 GMT に 確率 40% で一時的に
風向・風速不定 8m/s
視程4000m
天気現象雷雨
全天の4割程度の雲 雲底高度 790m
少しの積乱雲 雲底高度 1010m
16日2時 GMT ~ 16日9時 GMT に 確率 40% で一時的に
視程3000m
天気現象もや
全天の4割程度の雲 雲底高度 300m
TAF GABS 151120Z 1512/1618 29008KT 9999 SCT026
PROB40 TEMPO 1515/1521 VRB15KT 4000 TSRA SCT026 FEW033CB
PROB40 TEMPO 1602/1609 3000 BR SCT010